ADDS METAR Data INFO
IDs: Format: Raw Decoded Include TAF

Data at: 0924 UTC 13 Dec 2017

KESN 130916Z AUTO 32018G29KT 10SM SCT049 M04/M17 A2978 RMK AO2 T10451168
KESN 130856Z AUTO 32015G23KT 10SM SCT049 SCT055 M05/M16 A2978 RMK AO2 T10461156
KESN 130836Z AUTO 31015G22KT 10SM BKN049 BKN055 M04/M16 A2978 RMK AO2 T10421158
KESN 130816Z AUTO 32016G26KT 10SM BKN049 BKN060 M04/M15 A2978 RMK AO2 T10401152
KESN 130756Z AUTO 32013G22KT 10SM BKN049 BKN060 M04/M15 A2978 RMK AO2 T10401150
KESN 130736Z AUTO 33016G31KT 10SM BKN060 M04/M17 A2977 RMK AO2 T10401173
KESN 130716Z AUTO 33012G23KT 10SM BKN060 M04/M17 A2977 RMK AO2 T10401173
KESN 130656Z AUTO 33020G32KT 10SM BKN050 M04/M17 A2976 RMK AO2 T10371168
KESN 130636Z AUTO 33019G24KT 10SM SCT047 BKN060 BKN070 M04/M15 A2976 RMK AO2 T10371150
KESN 130617Z AUTO 34023G33KT 10SM SCT050 SCT060 M04/M17 A2975 RMK AO2 T10361174
KESN 130557Z AUTO 33025G30KT 10SM SCT044 SCT050 SCT060 M03/M16 A2974 RMK AO2 T10331157 10046 21033 400801033
KESN 130537Z AUTO 32018G30KT 10SM SCT043 SCT049 SCT060 M03/M14 A2974 RMK AO2 T10301137
KESN 130517Z AUTO 33023G31KT 10SM SCT060 M03/M15 A2974 RMK AO2 T10301152
KESN 130457Z AUTO 33021G31KT 10SM SCT050 M03/M12 A2972 RMK AO2 T10261118
KESN 130437Z AUTO 33017G27KT 10SM BKN050 M02/M12 A2972 RMK AO2 T10201125
KESN 130417Z AUTO 34019G24KT 10SM OVC050 M02/M13 A2970 RMK AO2 T10171132
KESN 130357Z AUTO 34020G29KT 10SM BKN050 M02/M14 A2970 RMK AO2 T10161141
KESN 130337Z AUTO 33018G30KT 10SM SCT050 M01/M14 A2969 RMK AO2 T10151143
KESN 130317Z AUTO 32017G26KT 300V360 10SM SCT050 M01/M14 A2969 RMK AO2 T10131137
KESN 130150Z 34017G24KT 10SM SCT050 00/M10 A2967
KESN 130050Z 32020G28KT 10SM SCT060 03/M08 A2965
KESN 122350Z 31016G27KT 10SM SCT050 04/M08 A2962
KESN 122250Z 33013G19KT 10SM SCT050 06/M04 A2960
KESN 122150Z 31015G19KT 10SM SCT055 OVC150 07/M03 A2957
KESN 122050Z 00000KT 10SM OVC150 07/01 A2955
KESN 121950Z 25004KT 10SM SCT070 OVC150 07/01 A2954
KESN 121745Z 25004KT 10SM BKN150 08/01 A2956
KESN 121650Z 26007KT 10SM BKN150 08/01 A2958
KESN 121550Z 28006KT 10SM BKN150 08/00 A2961
KESN 121446Z 27007KT 10SM OVC150 08/01 A2964
KESN 121350Z 22008KT 10SM OVC150 08/01 A2963
KESN 121253Z 19007KT 10SM SKC 07/02 A2964
KESN 121153Z 21007KT 10SM SKC 07/02 A2968
KESN 121053Z 18007KT 10SM SKC 07/M03 A2969
KESN 121006Z AUTO 19009KT 10SM CLR 07/03 A2973 RMK AO2 T00680028
KESN 120957Z AUTO 19009KT 10SM CLR 07/03 A2973 RMK AO2 T00670027
KESN 120937Z AUTO 20009KT 10SM CLR 07/03 A2974 RMK AO2 T00660027
KESN 120917Z AUTO 19010KT 10SM CLR 07/03 A2975 RMK AO2 T00650027
KESN 120857Z AUTO 18010KT 10SM CLR 06/03 A2977 RMK AO2 T00610026
KESN 120837Z AUTO 18009KT 10SM CLR 06/03 A2979 RMK AO2 T00590025
KESN 120817Z AUTO 18009KT 10SM CLR 06/02 A2980 RMK AO2 T00570023
KESN 120757Z AUTO 18009KT 10SM CLR 06/02 A2982 RMK AO2 T00550020
KESN 120737Z AUTO 19008KT 10SM CLR 05/02 A2984 RMK AO2 T00530015
KESN 120717Z AUTO 18007KT 10SM CLR 05/01 A2985 RMK AO2 T00520009
KESN 120657Z AUTO 18008KT 10SM CLR 05/00 A2985 RMK AO2 T00510003
KESN 120637Z AUTO 18007KT 10SM CLR 05/00 A2986 RMK AO2 T00461002
KESN 120617Z AUTO 18009KT 10SM CLR 05/00 A2987 RMK AO2 T00461005
KESN 120557Z AUTO 18009KT 10SM CLR 05/M01 A2988 RMK AO2 T00471009 10050 20024 400860012
KESN 120537Z AUTO 18009KT 10SM CLR 05/M01 A2989 RMK AO2 T00471010
KESN 120517Z AUTO 18009KT 10SM CLR 05/M01 A2991 RMK AO2 T00491012
KESN 120457Z AUTO 18008KT 10SM CLR 05/M01 A2993 RMK AO2 T00481013
KESN 120437Z AUTO 17008KT 10SM CLR 05/M02 A2994 RMK AO2 T00471017
KESN 120417Z AUTO 17007KT 10SM CLR 04/M02 A2995 RMK AO2 T00401020
KESN 120357Z AUTO 17007KT 10SM SCT095 03/M02 A2996 RMK AO2 T00331019
KESN 120337Z AUTO 17006KT 10SM CLR 03/M02 A2998 RMK AO2 T00321020
KESN 120317Z AUTO 17005KT 10SM SCT095 03/M02 A2998 RMK AO2 T00331016
KESN 120250Z 16005KT 10SM SCT095 03/M02 A2999
KESN 120150Z 15006KT 10SM SKC 03/M02 A3001
KESN 120050Z 00000KT 10SM SKC 03/M01 A3002
KESN 112350Z 15004KT 10SM SKC 03/M02 A3003
KESN 112245Z 17005KT 10SM SKC 04/M03 A3004
KESN 112147Z 18003KT 10SM SKC 05/M04 A3005